createdAt,value
2022-10-08T00:00:33.046Z,46.20
2022-10-08T00:03:01.041Z,46.30
2022-10-08T00:05:28.887Z,46.20
2022-10-08T00:07:57.175Z,46.20
2022-10-08T00:10:25.004Z,46.50
2022-10-08T00:12:54.400Z,46.40
2022-10-08T00:15:22.123Z,46.40
2022-10-08T00:17:49.888Z,46.50
2022-10-08T00:20:17.643Z,46.40
2022-10-08T00:22:46.007Z,46.50
2022-10-08T00:25:14.210Z,46.60
2022-10-08T00:27:42.734Z,46.70
2022-10-08T00:30:13.709Z,46.60
2022-10-08T00:32:42.051Z,46.50
2022-10-08T00:35:10.354Z,46.70
2022-10-08T00:37:38.342Z,46.70
2022-10-08T00:40:06.873Z,46.70
2022-10-08T00:42:35.142Z,46.70
2022-10-08T00:45:02.980Z,46.80
2022-10-08T00:47:37.461Z,46.80
2022-10-08T00:50:06.663Z,46.70
2022-10-08T00:52:35.948Z,46.80
2022-10-08T00:55:06.325Z,46.90
2022-10-08T00:57:36.030Z,46.90
2022-10-08T01:00:05.174Z,46.90
2022-10-08T01:02:34.630Z,47.00
2022-10-08T01:05:02.617Z,46.90
2022-10-08T01:07:33.396Z,47.00
2022-10-08T01:10:02.704Z,47.10
2022-10-08T01:12:38.160Z,47.10
2022-10-08T01:15:10.409Z,47.00
2022-10-08T01:17:41.461Z,47.30
2022-10-08T01:20:36.086Z,47.30
2022-10-08T01:23:15.220Z,47.20
2022-10-08T01:25:48.276Z,47.20
2022-10-08T01:28:20.468Z,47.40
2022-10-08T01:30:51.081Z,47.50
2022-10-08T01:33:21.227Z,47.50
2022-10-08T01:35:51.297Z,47.50
2022-10-08T01:38:19.736Z,48.10
2022-10-08T01:40:47.948Z,47.60
2022-10-08T01:43:18.505Z,47.60
2022-10-08T01:45:50.303Z,47.60
2022-10-08T01:48:21.979Z,47.60
2022-10-08T01:50:53.987Z,47.70
2022-10-08T01:53:22.357Z,47.80
2022-10-08T01:55:52.008Z,47.80
2022-10-08T01:58:23.727Z,47.80
2022-10-08T02:00:51.985Z,47.80
2022-10-08T02:03:19.676Z,47.80
2022-10-08T02:05:50.399Z,47.90
2022-10-08T02:08:18.092Z,48.00
2022-10-08T02:10:46.251Z,48.00
2022-10-08T02:13:13.899Z,48.10
2022-10-08T02:15:45.799Z,47.90
2022-10-08T02:18:15.231Z,48.10
2022-10-08T02:20:45.081Z,48.10
2022-10-08T02:23:18.576Z,48.10
2022-10-08T02:25:49.974Z,48.20
2022-10-08T02:28:20.662Z,48.20
2022-10-08T02:30:52.486Z,48.10
2022-10-08T02:33:23.924Z,48.20
2022-10-08T02:35:52.997Z,48.20
2022-10-08T02:38:22.503Z,48.40
2022-10-08T02:40:51.418Z,49.00
2022-10-08T02:43:22.207Z,48.40
2022-10-08T02:45:53.934Z,48.30
2022-10-08T02:48:24.567Z,48.30
2022-10-08T02:50:52.312Z,48.50
2022-10-08T02:53:20.476Z,48.50
2022-10-08T02:55:50.250Z,48.40
2022-10-08T02:58:18.730Z,48.60
2022-10-08T03:00:50.946Z,48.60
2022-10-08T03:03:22.528Z,48.60
2022-10-08T03:05:52.603Z,48.60
2022-10-08T03:08:20.559Z,48.50
2022-10-08T03:10:48.219Z,48.40
2022-10-08T03:13:16.385Z,48.70
2022-10-08T03:15:44.718Z,48.60
2022-10-08T03:18:13.072Z,48.60
2022-10-08T03:20:46.811Z,48.70
2022-10-08T03:23:15.645Z,48.70
2022-10-08T03:25:43.710Z,48.80
2022-10-08T03:28:11.418Z,48.90
2022-10-08T03:30:39.826Z,48.90
2022-10-08T03:33:07.798Z,48.80
2022-10-08T03:35:35.594Z,48.80
2022-10-08T03:38:04.684Z,48.90
2022-10-08T03:40:32.431Z,49.00
2022-10-08T03:43:00.176Z,49.00
2022-10-08T03:45:28.304Z,48.90
2022-10-08T03:47:56.104Z,49.10
2022-10-08T03:50:24.060Z,49.00
2022-10-08T03:52:52.270Z,49.10
2022-10-08T03:55:21.505Z,49.10
2022-10-08T03:57:49.427Z,49.10
2022-10-08T04:00:17.940Z,49.30
2022-10-08T04:02:48.893Z,49.30
2022-10-08T04:05:17.170Z,49.20
2022-10-08T04:07:45.084Z,49.30
2022-10-08T04:10:13.446Z,49.30
2022-10-08T04:12:42.879Z,49.30
2022-10-08T04:15:11.712Z,49.30
2022-10-08T04:17:39.635Z,49.40
2022-10-08T04:20:08.520Z,49.50
2022-10-08T04:22:36.251Z,49.50
2022-10-08T04:25:04.530Z,49.50
2022-10-08T04:27:32.264Z,49.50
2022-10-08T04:30:01.738Z,49.60
2022-10-08T04:32:29.448Z,49.50
2022-10-08T04:34:57.577Z,49.60
2022-10-08T04:37:25.325Z,49.60
2022-10-08T04:39:53.627Z,49.60
2022-10-08T04:42:21.365Z,49.60
2022-10-08T04:44:49.095Z,49.60
2022-10-08T04:47:18.653Z,49.70
2022-10-08T04:49:46.372Z,49.80
2022-10-08T04:52:17.129Z,49.80
2022-10-08T04:54:44.881Z,49.90
2022-10-08T04:57:13.022Z,49.80
2022-10-08T04:59:53.928Z,49.90
2022-10-08T05:02:28.825Z,49.90
2022-10-08T05:04:56.583Z,50.00
2022-10-08T05:07:26.402Z,50.10
2022-10-08T05:09:54.367Z,50.20
2022-10-08T05:12:22.685Z,50.10
2022-10-08T05:14:50.551Z,50.20
2022-10-08T05:17:18.687Z,50.20
2022-10-08T05:19:47.934Z,50.40
2022-10-08T05:22:16.184Z,50.30
2022-10-08T05:24:44.164Z,50.40
2022-10-08T05:27:11.897Z,50.40
2022-10-08T05:29:40.036Z,50.50
2022-10-08T05:32:07.922Z,50.60
2022-10-08T05:34:36.061Z,50.40
2022-10-08T05:37:05.142Z,50.50
2022-10-08T05:39:32.892Z,50.50
2022-10-08T05:42:00.700Z,50.60
2022-10-08T05:44:29.152Z,50.70
2022-10-08T05:46:57.052Z,50.70
2022-10-08T05:49:25.093Z,50.80
2022-10-08T05:51:53.434Z,50.70
2022-10-08T05:54:22.715Z,50.80
2022-10-08T05:56:51.006Z,50.80
2022-10-08T05:59:20.288Z,50.90
2022-10-08T06:01:48.165Z,50.80
2022-10-08T06:04:16.608Z,50.80
2022-10-08T06:06:44.581Z,50.80
2022-10-08T06:09:13.771Z,51.00
2022-10-08T06:11:43.389Z,50.90
2022-10-08T06:14:11.386Z,51.10
2022-10-08T06:16:39.334Z,51.00
2022-10-08T06:19:09.297Z,51.10
2022-10-08T06:21:37.146Z,51.00
2022-10-08T06:24:06.003Z,51.10
2022-10-08T06:26:36.236Z,51.10
2022-10-08T06:29:06.492Z,51.00
2022-10-08T06:31:34.619Z,51.20
2022-10-08T06:34:04.165Z,51.20
2022-10-08T06:36:32.757Z,51.20
2022-10-08T06:39:01.120Z,51.10
2022-10-08T06:41:30.782Z,51.20
2022-10-08T06:43:58.511Z,51.20
2022-10-08T06:46:28.015Z,51.10
2022-10-08T06:48:55.788Z,51.20
2022-10-08T06:51:23.996Z,51.00
2022-10-08T06:53:53.285Z,51.20
2022-10-08T06:56:21.063Z,51.30
2022-10-08T06:58:49.284Z,51.30
2022-10-08T07:01:18.619Z,51.20
2022-10-08T07:03:51.785Z,51.30
2022-10-08T07:06:19.708Z,51.20
2022-10-08T07:08:48.054Z,51.20
2022-10-08T07:11:16.971Z,51.20
2022-10-08T07:13:45.809Z,51.30
2022-10-08T07:16:19.589Z,51.20
2022-10-08T07:18:50.504Z,51.30
2022-10-08T07:21:19.179Z,51.10
2022-10-08T07:23:47.111Z,51.20
2022-10-08T07:26:15.496Z,51.40
2022-10-08T07:28:45.690Z,51.20
2022-10-08T07:31:15.487Z,51.10
2022-10-08T07:33:43.833Z,51.30
2022-10-08T07:36:13.848Z,51.30
2022-10-08T07:38:41.976Z,51.20
2022-10-08T07:41:10.719Z,51.20
2022-10-08T07:43:41.120Z,51.20
2022-10-08T07:46:09.723Z,51.20
2022-10-08T07:48:37.825Z,51.20
2022-10-08T07:51:14.228Z,51.20
2022-10-08T07:53:42.302Z,51.20
2022-10-08T07:56:11.113Z,51.40
2022-10-08T07:58:38.885Z,50.80
2022-10-08T08:01:08.629Z,51.10
2022-10-08T08:03:36.582Z,51.20
2022-10-08T08:06:04.490Z,51.20
2022-10-08T08:08:35.636Z,51.40
2022-10-08T08:11:04.808Z,51.30
2022-10-08T08:13:36.955Z,50.00
2022-10-08T08:16:07.110Z,53.50
2022-10-08T08:18:36.285Z,54.20
2022-10-08T08:21:05.158Z,56.20
2022-10-08T08:23:35.106Z,55.60
2022-10-08T08:26:03.125Z,55.90
2022-10-08T08:28:31.496Z,55.40
2022-10-08T08:31:08.564Z,55.70
2022-10-08T08:33:36.298Z,56.50
2022-10-08T08:36:04.617Z,56.20
2022-10-08T08:38:34.813Z,56.90
2022-10-08T08:41:12.508Z,58.00
2022-10-08T08:43:41.690Z,59.60
2022-10-08T08:46:09.457Z,56.90
2022-10-08T08:48:38.315Z,54.90
2022-10-08T08:51:06.215Z,53.50
2022-10-08T08:53:35.650Z,52.60
2022-10-08T08:56:04.976Z,51.40
2022-10-08T08:58:36.603Z,50.70
2022-10-08T09:01:07.536Z,50.10
2022-10-08T09:03:40.008Z,50.00
2022-10-08T09:06:11.127Z,49.90
2022-10-08T09:08:42.287Z,49.80
2022-10-08T09:11:13.263Z,49.40
2022-10-08T09:13:42.306Z,49.60
2022-10-08T09:16:11.872Z,49.40
2022-10-08T09:18:39.603Z,49.30
2022-10-08T09:21:07.709Z,49.40
2022-10-08T09:23:35.848Z,49.30
2022-10-08T09:26:10.204Z,49.10
2022-10-08T09:28:39.288Z,49.30
2022-10-08T09:31:13.748Z,49.40
2022-10-08T09:33:41.790Z,49.10
2022-10-08T09:36:12.503Z,49.40
2022-10-08T09:38:44.829Z,49.10
2022-10-08T09:41:19.037Z,49.00
2022-10-08T09:43:49.355Z,48.60
2022-10-08T09:46:29.483Z,48.30
2022-10-08T09:49:44.205Z,47.70
2022-10-08T09:52:23.879Z,47.30
2022-10-08T09:55:03.265Z,47.50
2022-10-08T09:57:35.552Z,47.30
2022-10-08T10:00:05.916Z,47.00
2022-10-08T10:02:34.677Z,46.80
2022-10-08T10:05:04.240Z,46.20
2022-10-08T10:07:40.964Z,46.40
2022-10-08T10:10:23.137Z,46.00
2022-10-08T10:12:59.149Z,46.00
2022-10-08T10:15:41.653Z,46.00
2022-10-08T10:18:14.585Z,45.50
2022-10-08T10:20:46.229Z,45.60
2022-10-08T10:23:16.594Z,45.70
2022-10-08T10:25:49.581Z,45.80
2022-10-08T10:28:28.786Z,45.50
2022-10-08T10:31:01.455Z,45.50
2022-10-08T10:33:30.676Z,45.20
2022-10-08T10:36:07.295Z,45.40
2022-10-08T10:38:40.749Z,45.40
2022-10-08T10:41:12.856Z,45.60
2022-10-08T10:43:48.213Z,45.50
2022-10-08T10:46:34.774Z,45.80
2022-10-08T10:49:02.904Z,45.20
2022-10-08T10:51:41.949Z,45.10
2022-10-08T10:54:18.554Z,44.80
2022-10-08T10:56:48.973Z,44.30
2022-10-08T10:59:24.188Z,44.40
2022-10-08T11:01:54.866Z,44.40
2022-10-08T11:04:25.741Z,44.50
2022-10-08T11:07:00.716Z,43.90
2022-10-08T11:09:34.464Z,43.70
2022-10-08T11:12:05.476Z,41.40
2022-10-08T11:14:39.521Z,39.70
2022-10-08T11:17:12.547Z,37.80
2022-10-08T11:19:45.436Z,36.40
2022-10-08T11:22:16.558Z,35.20
2022-10-08T11:24:54.232Z,34.40
2022-10-08T11:27:25.510Z,33.40
2022-10-08T11:29:57.298Z,32.50
2022-10-08T11:32:26.874Z,31.80
2022-10-08T11:34:57.268Z,31.40
2022-10-08T11:37:27.342Z,30.90
2022-10-08T11:40:00.715Z,30.70
2022-10-08T11:42:34.626Z,30.50
2022-10-08T11:45:33.587Z,30.20
2022-10-08T11:48:01.561Z,29.70
2022-10-08T11:50:31.537Z,29.70
2022-10-08T11:53:02.153Z,30.40
2022-10-08T11:55:31.658Z,32.90
2022-10-08T11:58:09.055Z,35.10
2022-10-08T12:00:42.148Z,37.00
2022-10-08T12:03:21.691Z,38.90
2022-10-08T12:05:52.269Z,39.80
2022-10-08T12:08:48.898Z,39.10
2022-10-08T12:11:49.476Z,34.80
2022-10-08T12:14:33.746Z,35.40
2022-10-08T12:17:12.827Z,36.00
2022-10-08T12:20:08.279Z,34.10
2022-10-08T12:22:42.870Z,35.10
2022-10-08T12:25:38.471Z,32.60
2022-10-08T12:28:55.586Z,31.10
2022-10-08T12:31:42.712Z,30.10
2022-10-08T12:34:17.751Z,29.70
2022-10-08T12:36:52.279Z,29.20
2022-10-08T12:39:26.192Z,29.10
2022-10-08T12:41:58.188Z,28.50
2022-10-08T12:44:35.340Z,29.30
2022-10-08T12:47:05.791Z,30.00
2022-10-08T12:49:37.189Z,32.50
2022-10-08T12:52:06.330Z,34.60
2022-10-08T12:54:34.427Z,35.70
2022-10-08T12:57:02.352Z,37.10
2022-10-08T12:59:32.664Z,37.80
2022-10-08T13:02:00.519Z,37.30
2022-10-08T13:04:30.352Z,36.60
2022-10-08T13:06:59.476Z,35.60
2022-10-08T13:09:29.674Z,37.30
2022-10-08T13:12:02.826Z,36.70
2022-10-08T13:14:33.138Z,37.20
2022-10-08T13:17:01.109Z,36.10
2022-10-08T13:19:31.408Z,34.70
2022-10-08T13:22:01.659Z,35.70
2022-10-08T13:24:47.038Z,36.40
2022-10-08T13:27:25.913Z,37.10
2022-10-08T13:29:53.620Z,36.00
2022-10-08T13:32:22.695Z,36.70
2022-10-08T13:34:51.245Z,36.80
2022-10-08T13:37:31.600Z,38.00
2022-10-08T13:40:00.543Z,38.90
2022-10-08T13:42:29.884Z,39.20
2022-10-08T13:44:59.118Z,39.30
2022-10-08T13:47:27.407Z,40.00
2022-10-08T13:49:55.599Z,40.90
2022-10-08T13:52:24.361Z,41.60
2022-10-08T13:54:54.195Z,42.70
2022-10-08T13:57:21.895Z,42.60
2022-10-08T13:59:49.554Z,43.00
2022-10-08T14:02:17.455Z,43.40
2022-10-08T14:04:45.860Z,43.80
2022-10-08T14:07:18.148Z,43.60
2022-10-08T14:09:46.067Z,43.20
2022-10-08T14:12:15.415Z,43.50
2022-10-08T14:14:43.337Z,44.00
2022-10-08T14:17:11.233Z,42.60
2022-10-08T14:19:39.167Z,42.80
2022-10-08T14:22:07.237Z,42.80
2022-10-08T14:24:35.543Z,40.70
2022-10-08T14:27:08.140Z,39.00
2022-10-08T14:29:38.418Z,39.00
2022-10-08T14:32:08.467Z,38.60
2022-10-08T14:34:37.055Z,38.00
2022-10-08T14:37:05.753Z,39.30
2022-10-08T14:39:34.161Z,40.30
2022-10-08T14:42:02.056Z,41.20
2022-10-08T14:44:29.888Z,41.90
2022-10-08T14:46:59.209Z,42.10
2022-10-08T14:49:27.434Z,41.90
2022-10-08T14:51:55.286Z,42.20
2022-10-08T14:54:23.222Z,42.60
2022-10-08T14:56:51.129Z,42.90
2022-10-08T14:59:19.376Z,43.40
2022-10-08T15:01:47.228Z,43.80
2022-10-08T15:04:16.790Z,44.20
2022-10-08T15:06:44.755Z,44.50
2022-10-08T15:09:12.837Z,44.80
2022-10-08T15:11:40.531Z,44.60
2022-10-08T15:14:08.333Z,44.50
2022-10-08T15:16:36.077Z,44.60
2022-10-08T15:19:03.835Z,44.70
2022-10-08T15:21:33.181Z,44.90
2022-10-08T15:24:00.840Z,45.00
2022-10-08T15:26:29.180Z,45.20
2022-10-08T15:28:56.828Z,45.40
2022-10-08T15:31:25.888Z,45.60
2022-10-08T15:33:54.715Z,45.70
2022-10-08T15:36:23.296Z,45.90
2022-10-08T15:38:57.273Z,46.00
2022-10-08T15:41:25.155Z,46.10
2022-10-08T15:43:52.837Z,46.30
2022-10-08T15:46:21.276Z,46.40
2022-10-08T15:48:52.533Z,46.50
2022-10-08T15:51:20.880Z,46.60
2022-10-08T15:53:48.582Z,46.70
2022-10-08T15:56:17.825Z,46.80
2022-10-08T15:58:50.834Z,46.80
2022-10-08T16:01:20.999Z,46.90
2022-10-08T16:03:49.807Z,47.00
2022-10-08T16:06:18.857Z,47.00
2022-10-08T16:08:47.088Z,47.10
2022-10-08T16:11:15.453Z,47.10
2022-10-08T16:13:44.877Z,47.20
2022-10-08T16:16:15.260Z,47.20
2022-10-08T16:18:43.466Z,47.30
2022-10-08T16:21:11.791Z,47.40
2022-10-08T16:23:39.716Z,47.40
2022-10-08T16:26:08.754Z,47.50
2022-10-08T16:28:37.523Z,47.50
2022-10-08T16:31:06.984Z,47.40
2022-10-08T16:33:34.910Z,47.60
2022-10-08T16:36:02.881Z,47.60
2022-10-08T16:38:30.943Z,47.70
2022-10-08T16:41:12.539Z,47.70
2022-10-08T16:43:40.942Z,47.70
2022-10-08T16:46:16.430Z,47.80
2022-10-08T16:48:44.550Z,47.80
2022-10-08T16:51:12.732Z,47.90
2022-10-08T16:53:40.625Z,47.80
2022-10-08T16:56:08.564Z,48.60
2022-10-08T16:58:36.895Z,48.00
2022-10-08T17:01:08.257Z,48.10
2022-10-08T17:03:37.579Z,48.10
2022-10-08T17:06:06.321Z,48.20
2022-10-08T17:08:34.647Z,48.30
2022-10-08T17:11:06.311Z,48.20
2022-10-08T17:13:34.697Z,48.30
2022-10-08T17:16:03.154Z,48.40
2022-10-08T17:18:32.495Z,48.40
2022-10-08T17:21:02.228Z,48.50
2022-10-08T17:23:34.111Z,48.50
2022-10-08T17:26:04.399Z,48.50
2022-10-08T17:28:33.333Z,48.60
2022-10-08T17:31:02.599Z,48.70
2022-10-08T17:33:34.732Z,48.90
2022-10-08T17:36:06.692Z,48.80
2022-10-08T17:38:34.546Z,48.90
2022-10-08T17:41:02.579Z,48.90
2022-10-08T17:43:30.446Z,49.10
2022-10-08T17:46:07.044Z,49.10
2022-10-08T17:48:34.982Z,49.10
2022-10-08T17:51:02.902Z,49.20
2022-10-08T17:53:32.702Z,49.00
2022-10-08T17:56:00.901Z,49.10
2022-10-08T17:58:28.962Z,49.20
2022-10-08T18:01:03.969Z,49.50
2022-10-08T18:03:32.417Z,49.60
2022-10-08T18:06:00.420Z,49.80
2022-10-08T18:08:28.731Z,50.00
2022-10-08T18:10:58.254Z,49.90
2022-10-08T18:13:27.127Z,50.20
2022-10-08T18:15:55.496Z,50.20
2022-10-08T18:18:23.727Z,50.40
2022-10-08T18:20:55.862Z,50.50
2022-10-08T18:23:23.967Z,50.70
2022-10-08T18:25:54.057Z,50.70
2022-10-08T18:28:24.253Z,50.80
2022-10-08T18:30:52.318Z,50.80
2022-10-08T18:33:24.556Z,51.00
2022-10-08T18:35:52.689Z,50.90
2022-10-08T18:38:21.149Z,51.20
2022-10-08T18:40:49.222Z,51.30
2022-10-08T18:43:17.088Z,51.40
2022-10-08T18:45:46.897Z,51.50
2022-10-08T18:48:14.867Z,51.40
2022-10-08T18:50:42.826Z,51.50
2022-10-08T18:53:10.719Z,51.40
2022-10-08T18:55:38.793Z,51.60
2022-10-08T18:58:06.803Z,51.60
2022-10-08T19:00:38.917Z,51.60
2022-10-08T19:03:08.404Z,51.60
2022-10-08T19:05:38.965Z,51.70
2022-10-08T19:08:07.126Z,51.80
2022-10-08T19:10:35.092Z,52.00
2022-10-08T19:13:03.026Z,51.80
2022-10-08T19:15:31.083Z,52.10
2022-10-08T19:17:58.983Z,52.00
2022-10-08T19:20:28.610Z,52.20
2022-10-08T19:22:56.423Z,52.20
2022-10-08T19:25:24.543Z,52.00
2022-10-08T19:27:52.300Z,52.20
2022-10-08T19:30:24.794Z,52.20
2022-10-08T19:32:54.274Z,52.20
2022-10-08T19:35:22.350Z,52.20
2022-10-08T19:37:51.899Z,52.40
2022-10-08T19:40:19.909Z,52.30
2022-10-08T19:42:48.205Z,52.20
2022-10-08T19:45:16.374Z,52.20
2022-10-08T19:47:44.378Z,52.40
2022-10-08T19:50:12.487Z,52.50
2022-10-08T19:52:40.790Z,52.30
2022-10-08T19:55:10.962Z,52.50
2022-10-08T19:57:39.271Z,52.60
2022-10-08T20:00:08.707Z,52.50
2022-10-08T20:02:37.296Z,52.50
2022-10-08T20:05:05.852Z,52.60
2022-10-08T20:07:33.829Z,52.60
2022-10-08T20:10:01.750Z,52.60
2022-10-08T20:12:31.591Z,52.60
2022-10-08T20:14:59.561Z,52.70
2022-10-08T20:17:27.808Z,52.70
2022-10-08T20:20:05.318Z,52.70
2022-10-08T20:22:44.328Z,52.80
2022-10-08T20:25:12.497Z,52.80
2022-10-08T20:27:41.926Z,53.00
2022-10-08T20:30:10.485Z,52.90
2022-10-08T20:32:38.500Z,52.90
2022-10-08T20:35:07.772Z,52.70
2022-10-08T20:37:35.824Z,53.00
2022-10-08T20:40:03.868Z,52.90
2022-10-08T20:42:32.346Z,52.90
2022-10-08T20:45:01.668Z,53.00
2022-10-08T20:47:29.584Z,53.00
2022-10-08T20:49:57.722Z,52.90
2022-10-08T20:52:25.612Z,52.80
2022-10-08T20:54:54.115Z,52.90
2022-10-08T20:57:22.120Z,53.00
2022-10-08T20:59:50.284Z,53.10
2022-10-08T21:02:20.063Z,53.10
2022-10-08T21:04:48.221Z,53.30
2022-10-08T21:07:16.171Z,53.20
2022-10-08T21:09:44.196Z,53.20
2022-10-08T21:12:12.332Z,53.40
2022-10-08T21:14:40.741Z,53.80
2022-10-08T21:17:08.743Z,53.20
2022-10-08T21:19:38.397Z,53.40
2022-10-08T21:22:07.859Z,53.20
2022-10-08T21:24:37.545Z,53.40
2022-10-08T21:27:05.696Z,53.70
2022-10-08T21:29:33.745Z,53.40
2022-10-08T21:32:02.166Z,53.50
2022-10-08T21:34:30.410Z,53.30
2022-10-08T21:36:59.823Z,53.10
2022-10-08T21:39:27.790Z,53.20
2022-10-08T21:41:56.185Z,53.50
2022-10-08T21:44:24.292Z,53.50
2022-10-08T21:46:52.313Z,53.50
2022-10-08T21:49:20.893Z,53.00
2022-10-08T21:51:49.151Z,53.60
2022-10-08T21:54:18.374Z,53.70
2022-10-08T21:56:46.782Z,53.70
2022-10-08T21:59:15.531Z,54.00
2022-10-08T22:01:44.744Z,54.00
2022-10-08T22:04:13.403Z,53.80
2022-10-08T22:06:42.465Z,54.00
2022-10-08T22:09:11.697Z,54.00
2022-10-08T22:11:41.445Z,53.80
2022-10-08T22:14:09.731Z,54.10
2022-10-08T22:16:37.761Z,53.90
2022-10-08T22:19:06.387Z,53.90
2022-10-08T22:21:34.471Z,54.10
2022-10-08T22:24:02.692Z,54.00
2022-10-08T22:26:31.647Z,54.20
2022-10-08T22:29:01.201Z,54.20
2022-10-08T22:31:29.311Z,54.20
2022-10-08T22:33:57.893Z,54.30
2022-10-08T22:36:26.629Z,54.20
2022-10-08T22:38:55.021Z,54.30
2022-10-08T22:41:24.179Z,54.20
2022-10-08T22:43:52.523Z,54.40
2022-10-08T22:46:22.779Z,54.00
2022-10-08T22:48:51.204Z,54.40
2022-10-08T22:51:20.257Z,54.40
2022-10-08T22:53:48.686Z,54.20
2022-10-08T22:56:18.229Z,54.50
2022-10-08T22:58:47.053Z,54.20
2022-10-08T23:01:15.800Z,54.60
2022-10-08T23:03:45.660Z,54.70
2022-10-08T23:06:15.291Z,54.30
2022-10-08T23:08:43.710Z,54.40
2022-10-08T23:11:11.716Z,54.50
2022-10-08T23:13:39.740Z,54.60
2022-10-08T23:16:08.839Z,54.60
2022-10-08T23:18:37.761Z,54.70
2022-10-08T23:21:07.948Z,54.70
2022-10-08T23:23:36.059Z,54.70
2022-10-08T23:26:04.857Z,54.70
2022-10-08T23:28:32.958Z,54.70
2022-10-08T23:31:07.997Z,54.70
2022-10-08T23:33:37.927Z,54.60
2022-10-08T23:36:08.103Z,54.80
2022-10-08T23:38:36.407Z,54.80
2022-10-08T23:41:06.045Z,54.70
2022-10-08T23:43:35.109Z,54.80
2022-10-08T23:46:03.457Z,54.80
2022-10-08T23:48:31.263Z,54.90
2022-10-08T23:50:59.514Z,55.00
2022-10-08T23:53:28.890Z,55.10
2022-10-08T23:55:57.042Z,55.30
2022-10-08T23:58:24.872Z,55.00
